sensor_id;sensor_type;location;lat;lon;timestamp;temperature;humidity
15099;DHT22;33900;53.640;9.942;2022-12-24T00:00:57;9.00;94.10
15099;DHT22;33900;53.640;9.942;2022-12-24T00:03:23;9.00;94.10
15099;DHT22;33900;53.640;9.942;2022-12-24T00:05:49;9.00;94.10
15099;DHT22;33900;53.640;9.942;2022-12-24T00:08:16;9.00;94.10
15099;DHT22;33900;53.640;9.942;2022-12-24T00:10:43;9.00;94.10
15099;DHT22;33900;53.640;9.942;2022-12-24T00:13:09;9.00;94.10
15099;DHT22;33900;53.640;9.942;2022-12-24T00:15:35;9.00;94.10
15099;DHT22;33900;53.640;9.942;2022-12-24T00:18:01;9.00;94.10
15099;DHT22;33900;53.640;9.942;2022-12-24T00:20:27;9.00;94.10
15099;DHT22;33900;53.640;9.942;2022-12-24T00:22:53;9.00;94.10
15099;DHT22;33900;53.640;9.942;2022-12-24T00:25:19;8.90;94.10
15099;DHT22;33900;53.640;9.942;2022-12-24T00:27:48;8.90;94.10
15099;DHT22;33900;53.640;9.942;2022-12-24T00:30:17;8.90;94.20
15099;DHT22;33900;53.640;9.942;2022-12-24T00:32:46;8.90;94.20
15099;DHT22;33900;53.640;9.942;2022-12-24T00:35:12;8.90;94.20
15099;DHT22;33900;53.640;9.942;2022-12-24T00:37:39;8.90;94.20
15099;DHT22;33900;53.640;9.942;2022-12-24T00:40:05;8.90;94.20
15099;DHT22;33900;53.640;9.942;2022-12-24T00:42:41;8.90;94.20
15099;DHT22;33900;53.640;9.942;2022-12-24T00:45:08;8.90;94.20
15099;DHT22;33900;53.640;9.942;2022-12-24T00:47:34;8.90;94.20
15099;DHT22;33900;53.640;9.942;2022-12-24T00:50:01;8.90;94.20
15099;DHT22;33900;53.640;9.942;2022-12-24T00:52:28;8.80;94.10
15099;DHT22;33900;53.640;9.942;2022-12-24T00:55:12;8.80;94.10
15099;DHT22;33900;53.640;9.942;2022-12-24T00:57:43;8.80;94.20
15099;DHT22;33900;53.640;9.942;2022-12-24T01:00:14;8.80;94.20
15099;DHT22;33900;53.640;9.942;2022-12-24T01:02:45;8.80;94.20
15099;DHT22;33900;53.640;9.942;2022-12-24T01:05:11;8.80;94.60
15099;DHT22;33900;53.640;9.942;2022-12-24T01:07:41;8.80;94.20
15099;DHT22;33900;53.640;9.942;2022-12-24T01:10:13;8.80;94.20
15099;DHT22;33900;53.640;9.942;2022-12-24T01:12:40;8.80;94.30
15099;DHT22;33900;53.640;9.942;2022-12-24T01:15:07;8.80;94.20
15099;DHT22;33900;53.640;9.942;2022-12-24T01:17:33;8.80;94.20
15099;DHT22;33900;53.640;9.942;2022-12-24T01:19:59;8.80;94.30
15099;DHT22;33900;53.640;9.942;2022-12-24T01:22:28;8.80;94.30
15099;DHT22;33900;53.640;9.942;2022-12-24T01:24:56;8.80;94.30
15099;DHT22;33900;53.640;9.942;2022-12-24T01:27:22;8.80;94.30
15099;DHT22;33900;53.640;9.942;2022-12-24T01:29:50;8.80;94.30
15099;DHT22;33900;53.640;9.942;2022-12-24T01:32:16;8.80;94.30
15099;DHT22;33900;53.640;9.942;2022-12-24T01:34:42;8.80;94.30
15099;DHT22;33900;53.640;9.942;2022-12-24T01:37:08;8.80;94.30
15099;DHT22;33900;53.640;9.942;2022-12-24T01:39:34;8.80;94.30
15099;DHT22;33900;53.640;9.942;2022-12-24T01:42:21;8.80;94.30
15099;DHT22;33900;53.640;9.942;2022-12-24T01:47:52;8.70;94.60
15099;DHT22;33900;53.640;9.942;2022-12-24T01:50:18;8.80;94.30
15099;DHT22;33900;53.640;9.942;2022-12-24T01:52:44;8.80;94.30
15099;DHT22;33900;53.640;9.942;2022-12-24T01:55:12;8.80;94.30
15099;DHT22;33900;53.640;9.942;2022-12-24T01:57:47;8.80;94.30
15099;DHT22;33900;53.640;9.942;2022-12-24T02:00:16;8.80;94.30
15099;DHT22;33900;53.640;9.942;2022-12-24T02:02:43;8.80;94.30
15099;DHT22;33900;53.640;9.942;2022-12-24T02:07:40;8.80;94.40
15099;DHT22;33900;53.640;9.942;2022-12-24T02:10:08;8.80;94.40
15099;DHT22;33900;53.640;9.942;2022-12-24T02:12:38;8.80;94.40
15099;DHT22;33900;53.640;9.942;2022-12-24T02:15:18;8.80;94.40
15099;DHT22;33900;53.640;9.942;2022-12-24T02:17:53;8.80;94.40
15099;DHT22;33900;53.640;9.942;2022-12-24T02:23:10;8.80;94.40
15099;DHT22;33900;53.640;9.942;2022-12-24T02:31:00;8.70;94.40
15099;DHT22;33900;53.640;9.942;2022-12-24T02:33:29;8.70;94.40
15099;DHT22;33900;53.640;9.942;2022-12-24T02:38:33;8.70;94.40
15099;DHT22;33900;53.640;9.942;2022-12-24T02:41:16;8.70;94.40
15099;DHT22;33900;53.640;9.942;2022-12-24T02:43:44;8.70;94.40
15099;DHT22;33900;53.640;9.942;2022-12-24T02:46:25;8.70;94.40
15099;DHT22;33900;53.640;9.942;2022-12-24T02:48:56;8.70;94.40
15099;DHT22;33900;53.640;9.942;2022-12-24T02:51:27;8.70;94.40
15099;DHT22;33900;53.640;9.942;2022-12-24T02:53:52;8.70;94.40
15099;DHT22;33900;53.640;9.942;2022-12-24T02:56:29;8.70;94.40
15099;DHT22;33900;53.640;9.942;2022-12-24T03:01:47;8.70;94.40
15099;DHT22;33900;53.640;9.942;2022-12-24T03:12:26;8.70;94.40
15099;DHT22;33900;53.640;9.942;2022-12-24T03:14:32;8.70;94.40
15099;DHT22;33900;53.640;9.942;2022-12-24T03:16:59;8.70;94.40
15099;DHT22;33900;53.640;9.942;2022-12-24T03:22:18;8.70;94.40
15099;DHT22;33900;53.640;9.942;2022-12-24T03:24:45;8.70;94.40
15099;DHT22;33900;53.640;9.942;2022-12-24T03:27:11;8.70;94.40
15099;DHT22;33900;53.640;9.942;2022-12-24T03:29:38;8.70;94.40
15099;DHT22;33900;53.640;9.942;2022-12-24T03:32:05;8.70;94.40
15099;DHT22;33900;53.640;9.942;2022-12-24T03:34:31;8.70;94.40
15099;DHT22;33900;53.640;9.942;2022-12-24T03:37:00;8.70;94.40
15099;DHT22;33900;53.640;9.942;2022-12-24T03:39:27;8.80;94.40
15099;DHT22;33900;53.640;9.942;2022-12-24T03:41:54;8.70;94.40
15099;DHT22;33900;53.640;9.942;2022-12-24T03:44:21;8.70;94.50
15099;DHT22;33900;53.640;9.942;2022-12-24T03:46:47;8.70;94.50
15099;DHT22;33900;53.640;9.942;2022-12-24T03:49:13;8.70;94.50
15099;DHT22;33900;53.640;9.942;2022-12-24T03:51:40;8.70;94.50
15099;DHT22;33900;53.640;9.942;2022-12-24T03:54:10;8.70;94.50
15099;DHT22;33900;53.640;9.942;2022-12-24T03:56:36;8.70;94.50
15099;DHT22;33900;53.640;9.942;2022-12-24T03:59:02;8.70;94.50
15099;DHT22;33900;53.640;9.942;2022-12-24T04:01:28;8.70;94.50
15099;DHT22;33900;53.640;9.942;2022-12-24T04:03:55;8.70;94.50
15099;DHT22;33900;53.640;9.942;2022-12-24T04:06:21;8.80;94.50
15099;DHT22;33900;53.640;9.942;2022-12-24T04:08:47;8.70;94.50
15099;DHT22;33900;53.640;9.942;2022-12-24T04:11:14;8.70;94.50
15099;DHT22;33900;53.640;9.942;2022-12-24T04:13:41;8.80;94.50
15099;DHT22;33900;53.640;9.942;2022-12-24T04:16:10;8.70;94.50
15099;DHT22;33900;53.640;9.942;2022-12-24T04:18:36;8.70;94.40
15099;DHT22;33900;53.640;9.942;2022-12-24T04:21:03;8.70;94.50
15099;DHT22;33900;53.640;9.942;2022-12-24T04:23:30;8.70;94.50
15099;DHT22;33900;53.640;9.942;2022-12-24T04:26:01;8.70;94.50
15099;DHT22;33900;53.640;9.942;2022-12-24T04:28:28;8.70;94.50
15099;DHT22;33900;53.640;9.942;2022-12-24T04:31:01;8.70;94.50
15099;DHT22;33900;53.640;9.942;2022-12-24T04:33:28;8.70;94.50
15099;DHT22;33900;53.640;9.942;2022-12-24T04:35:57;8.70;94.50
15099;DHT22;33900;53.640;9.942;2022-12-24T04:38:24;8.70;94.50
15099;DHT22;33900;53.640;9.942;2022-12-24T04:40:59;8.70;94.50
15099;DHT22;33900;53.640;9.942;2022-12-24T04:43:26;8.70;94.50
15099;DHT22;33900;53.640;9.942;2022-12-24T04:45:52;8.70;94.50
15099;DHT22;33900;53.640;9.942;2022-12-24T04:48:28;8.70;94.50
15099;DHT22;33900;53.640;9.942;2022-12-24T04:50:54;8.70;94.50
15099;DHT22;33900;53.640;9.942;2022-12-24T04:53:21;8.70;94.50
15099;DHT22;33900;53.640;9.942;2022-12-24T04:55:47;8.70;94.50
15099;DHT22;33900;53.640;9.942;2022-12-24T04:58:17;8.70;94.50
15099;DHT22;33900;53.640;9.942;2022-12-24T05:00:43;8.70;94.50
15099;DHT22;33900;53.640;9.942;2022-12-24T05:03:09;8.70;94.50
15099;DHT22;33900;53.640;9.942;2022-12-24T05:05:35;8.70;94.50
15099;DHT22;33900;53.640;9.942;2022-12-24T05:08:02;8.70;94.50
15099;DHT22;33900;53.640;9.942;2022-12-24T05:10:27;8.70;94.50
15099;DHT22;33900;53.640;9.942;2022-12-24T05:12:54;8.70;94.50
15099;DHT22;33900;53.640;9.942;2022-12-24T05:15:21;8.70;94.50
15099;DHT22;33900;53.640;9.942;2022-12-24T05:17:48;8.70;94.50
15099;DHT22;33900;53.640;9.942;2022-12-24T05:20:26;8.70;94.60
15099;DHT22;33900;53.640;9.942;2022-12-24T05:22:52;8.70;94.60
15099;DHT22;33900;53.640;9.942;2022-12-24T05:25:37;8.70;94.50
15099;DHT22;33900;53.640;9.942;2022-12-24T05:28:26;8.70;94.50
15099;DHT22;33900;53.640;9.942;2022-12-24T05:30:52;8.70;94.60
15099;DHT22;33900;53.640;9.942;2022-12-24T05:33:20;8.70;94.60
15099;DHT22;33900;53.640;9.942;2022-12-24T05:35:49;8.70;94.60
15099;DHT22;33900;53.640;9.942;2022-12-24T05:38:17;8.70;94.60
15099;DHT22;33900;53.640;9.942;2022-12-24T05:40:44;8.70;94.60
15099;DHT22;33900;53.640;9.942;2022-12-24T05:43:11;8.70;94.60
15099;DHT22;33900;53.640;9.942;2022-12-24T05:45:37;8.60;94.60
15099;DHT22;33900;53.640;9.942;2022-12-24T05:48:04;8.70;94.60
15099;DHT22;33900;53.640;9.942;2022-12-24T05:50:34;8.70;94.60
15099;DHT22;33900;53.640;9.942;2022-12-24T05:53:03;8.70;94.60
15099;DHT22;33900;53.640;9.942;2022-12-24T05:55:30;8.70;94.60
15099;DHT22;33900;53.640;9.942;2022-12-24T05:57:56;8.70;94.60
15099;DHT22;33900;53.640;9.942;2022-12-24T06:00:25;8.70;94.60
15099;DHT22;33900;53.640;9.942;2022-12-24T06:02:52;8.70;94.60
15099;DHT22;33900;53.640;9.942;2022-12-24T06:05:18;8.70;94.60
15099;DHT22;33900;53.640;9.942;2022-12-24T06:07:44;8.60;94.60
15099;DHT22;33900;53.640;9.942;2022-12-24T06:10:13;8.70;94.70
15099;DHT22;33900;53.640;9.942;2022-12-24T06:12:39;8.70;94.70
15099;DHT22;33900;53.640;9.942;2022-12-24T06:15:05;8.70;94.60
15099;DHT22;33900;53.640;9.942;2022-12-24T06:17:32;8.70;94.60
15099;DHT22;33900;53.640;9.942;2022-12-24T06:19:58;8.70;94.60
15099;DHT22;33900;53.640;9.942;2022-12-24T06:22:25;8.70;94.70
15099;DHT22;33900;53.640;9.942;2022-12-24T06:24:51;8.70;94.70
15099;DHT22;33900;53.640;9.942;2022-12-24T06:27:17;8.70;94.60
15099;DHT22;33900;53.640;9.942;2022-12-24T06:29:44;8.70;94.70
15099;DHT22;33900;53.640;9.942;2022-12-24T06:32:12;8.70;94.70
15099;DHT22;33900;53.640;9.942;2022-12-24T06:34:41;8.70;94.70
15099;DHT22;33900;53.640;9.942;2022-12-24T06:37:07;8.70;94.70
15099;DHT22;33900;53.640;9.942;2022-12-24T06:39:36;8.70;94.60
15099;DHT22;33900;53.640;9.942;2022-12-24T06:42:02;8.70;94.70
15099;DHT22;33900;53.640;9.942;2022-12-24T06:44:31;8.70;94.70
15099;DHT22;33900;53.640;9.942;2022-12-24T06:46:59;8.70;94.70
15099;DHT22;33900;53.640;9.942;2022-12-24T06:49:25;8.60;94.70
15099;DHT22;33900;53.640;9.942;2022-12-24T06:51:51;8.70;94.70
15099;DHT22;33900;53.640;9.942;2022-12-24T06:54:19;8.70;94.70
15099;DHT22;33900;53.640;9.942;2022-12-24T06:56:45;8.70;94.70
15099;DHT22;33900;53.640;9.942;2022-12-24T06:59:12;8.70;94.70
15099;DHT22;33900;53.640;9.942;2022-12-24T07:01:38;8.60;94.70
15099;DHT22;33900;53.640;9.942;2022-12-24T07:04:04;8.70;94.70
15099;DHT22;33900;53.640;9.942;2022-12-24T07:06:30;8.70;94.80
15099;DHT22;33900;53.640;9.942;2022-12-24T07:08:56;8.70;94.80
15099;DHT22;33900;53.640;9.942;2022-12-24T07:11:23;8.70;94.80
15099;DHT22;33900;53.640;9.942;2022-12-24T07:14:09;8.70;94.80
15099;DHT22;33900;53.640;9.942;2022-12-24T07:16:36;8.70;94.70
15099;DHT22;33900;53.640;9.942;2022-12-24T07:19:02;8.70;94.70
15099;DHT22;33900;53.640;9.942;2022-12-24T07:21:29;8.70;94.70
15099;DHT22;33900;53.640;9.942;2022-12-24T07:26:33;8.70;94.70
15099;DHT22;33900;53.640;9.942;2022-12-24T07:28:59;8.70;94.70
15099;DHT22;33900;53.640;9.942;2022-12-24T07:31:26;8.70;94.70
15099;DHT22;33900;53.640;9.942;2022-12-24T07:33:52;8.70;94.70
15099;DHT22;33900;53.640;9.942;2022-12-24T07:36:19;8.70;94.70
15099;DHT22;33900;53.640;9.942;2022-12-24T07:38:45;8.70;94.70
15099;DHT22;33900;53.640;9.942;2022-12-24T07:41:11;8.70;94.70
15099;DHT22;33900;53.640;9.942;2022-12-24T07:43:44;8.80;94.70
15099;DHT22;33900;53.640;9.942;2022-12-24T07:46:14;8.80;94.70
15099;DHT22;33900;53.640;9.942;2022-12-24T07:48:40;8.70;94.70
15099;DHT22;33900;53.640;9.942;2022-12-24T07:51:06;8.70;94.70
15099;DHT22;33900;53.640;9.942;2022-12-24T07:53:33;8.80;94.70
15099;DHT22;33900;53.640;9.942;2022-12-24T07:56:05;8.70;94.70
15099;DHT22;33900;53.640;9.942;2022-12-24T08:01:22;8.70;94.70
15099;DHT22;33900;53.640;9.942;2022-12-24T08:03:49;8.70;94.70
15099;DHT22;33900;53.640;9.942;2022-12-24T08:06:20;8.70;94.70
15099;DHT22;33900;53.640;9.942;2022-12-24T08:08:46;8.80;94.70
15099;DHT22;33900;53.640;9.942;2022-12-24T08:11:18;8.70;94.70
15099;DHT22;33900;53.640;9.942;2022-12-24T08:13:52;8.70;94.70
15099;DHT22;33900;53.640;9.942;2022-12-24T08:16:18;8.80;94.70
15099;DHT22;33900;53.640;9.942;2022-12-24T08:18:47;8.80;94.70
15099;DHT22;33900;53.640;9.942;2022-12-24T08:21:13;8.80;94.70
15099;DHT22;33900;53.640;9.942;2022-12-24T08:23:40;8.70;94.70
15099;DHT22;33900;53.640;9.942;2022-12-24T08:26:07;8.70;94.70
15099;DHT22;33900;53.640;9.942;2022-12-24T08:28:33;8.80;94.80
15099;DHT22;33900;53.640;9.942;2022-12-24T08:31:07;8.80;94.70
15099;DHT22;33900;53.640;9.942;2022-12-24T08:33:33;8.80;94.70
15099;DHT22;33900;53.640;9.942;2022-12-24T08:36:00;8.80;94.70
15099;DHT22;33900;53.640;9.942;2022-12-24T08:38:28;8.70;94.70
15099;DHT22;33900;53.640;9.942;2022-12-24T08:41:09;8.70;94.70
15099;DHT22;33900;53.640;9.942;2022-12-24T08:43:35;8.70;94.70
15099;DHT22;33900;53.640;9.942;2022-12-24T08:46:08;8.70;95.10
15099;DHT22;33900;53.640;9.942;2022-12-24T08:49:05;8.70;94.70
15099;DHT22;33900;53.640;9.942;2022-12-24T08:51:39;8.70;95.10
15099;DHT22;33900;53.640;9.942;2022-12-24T08:54:06;8.70;94.80
15099;DHT22;33900;53.640;9.942;2022-12-24T08:56:35;8.70;94.80
15099;DHT22;33900;53.640;9.942;2022-12-24T08:59:04;8.70;94.80
15099;DHT22;33900;53.640;9.942;2022-12-24T09:01:36;8.70;94.80
15099;DHT22;33900;53.640;9.942;2022-12-24T09:04:04;8.70;94.80
15099;DHT22;33900;53.640;9.942;2022-12-24T09:06:31;8.70;94.80
15099;DHT22;33900;53.640;9.942;2022-12-24T09:09:01;8.70;95.20
15099;DHT22;33900;53.640;9.942;2022-12-24T09:11:29;8.70;94.80
15099;DHT22;33900;53.640;9.942;2022-12-24T09:13:55;8.70;94.80
15099;DHT22;33900;53.640;9.942;2022-12-24T09:16:21;8.70;94.80
15099;DHT22;33900;53.640;9.942;2022-12-24T09:18:48;8.80;94.80
15099;DHT22;33900;53.640;9.942;2022-12-24T09:21:15;8.70;94.70
15099;DHT22;33900;53.640;9.942;2022-12-24T09:23:42;8.80;94.80
15099;DHT22;33900;53.640;9.942;2022-12-24T09:26:18;8.80;94.80
15099;DHT22;33900;53.640;9.942;2022-12-24T09:28:55;8.70;94.70
15099;DHT22;33900;53.640;9.942;2022-12-24T09:31:21;8.80;94.70
15099;DHT22;33900;53.640;9.942;2022-12-24T09:33:53;8.80;94.80
15099;DHT22;33900;53.640;9.942;2022-12-24T09:36:21;8.80;94.80
15099;DHT22;33900;53.640;9.942;2022-12-24T09:38:47;8.80;94.80
15099;DHT22;33900;53.640;9.942;2022-12-24T09:44:03;8.80;94.80
15099;DHT22;33900;53.640;9.942;2022-12-24T09:46:35;8.80;94.80
15099;DHT22;33900;53.640;9.942;2022-12-24T09:49:07;8.80;94.80
15099;DHT22;33900;53.640;9.942;2022-12-24T09:51:50;8.80;94.80
15099;DHT22;33900;53.640;9.942;2022-12-24T09:54:37;8.80;94.80
15099;DHT22;33900;53.640;9.942;2022-12-24T10:00:15;8.80;94.80
15099;DHT22;33900;53.640;9.942;2022-12-24T10:02:53;8.80;94.80
15099;DHT22;33900;53.640;9.942;2022-12-24T10:05:41;8.90;94.90
15099;DHT22;33900;53.640;9.942;2022-12-24T10:08:22;8.90;94.90
15099;DHT22;33900;53.640;9.942;2022-12-24T10:10:56;8.90;94.90
15099;DHT22;33900;53.640;9.942;2022-12-24T10:13:30;8.90;94.90
15099;DHT22;33900;53.640;9.942;2022-12-24T10:16:19;8.90;94.90
15099;DHT22;33900;53.640;9.942;2022-12-24T10:18:51;8.90;94.90
15099;DHT22;33900;53.640;9.942;2022-12-24T10:24:10;8.90;94.90
15099;DHT22;33900;53.640;9.942;2022-12-24T10:26:42;8.90;94.90
15099;DHT22;33900;53.640;9.942;2022-12-24T10:29:16;9.00;94.90
15099;DHT22;33900;53.640;9.942;2022-12-24T10:31:49;8.90;94.90
15099;DHT22;33900;53.640;9.942;2022-12-24T10:34:19;9.00;94.90
15099;DHT22;33900;53.640;9.942;2022-12-24T10:36:46;9.00;94.90
15099;DHT22;33900;53.640;9.942;2022-12-24T10:39:18;9.00;94.90
15099;DHT22;33900;53.640;9.942;2022-12-24T10:41:45;9.00;94.90
15099;DHT22;33900;53.640;9.942;2022-12-24T10:44:14;9.00;95.00
15099;DHT22;33900;53.640;9.942;2022-12-24T10:46:41;9.00;94.90
15099;DHT22;33900;53.640;9.942;2022-12-24T10:49:11;9.00;94.90
15099;DHT22;33900;53.640;9.942;2022-12-24T10:54:05;9.00;94.90
15099;DHT22;33900;53.640;9.942;2022-12-24T10:56:38;9.00;94.90
15099;DHT22;33900;53.640;9.942;2022-12-24T10:59:04;9.00;94.90
15099;DHT22;33900;53.640;9.942;2022-12-24T11:01:44;9.00;94.90
15099;DHT22;33900;53.640;9.942;2022-12-24T11:04:20;9.10;94.90
15099;DHT22;33900;53.640;9.942;2022-12-24T11:06:54;9.10;94.90
15099;DHT22;33900;53.640;9.942;2022-12-24T11:11:49;9.10;94.90
15099;DHT22;33900;53.640;9.942;2022-12-24T11:14:15;9.10;95.00
15099;DHT22;33900;53.640;9.942;2022-12-24T11:16:49;9.10;94.90
15099;DHT22;33900;53.640;9.942;2022-12-24T11:19:17;9.10;94.90
15099;DHT22;33900;53.640;9.942;2022-12-24T11:21:43;9.10;95.00
15099;DHT22;33900;53.640;9.942;2022-12-24T11:26:38;9.20;95.00
15099;DHT22;33900;53.640;9.942;2022-12-24T11:31:32;9.20;95.00
15099;DHT22;33900;53.640;9.942;2022-12-24T11:34:16;9.20;95.00
15099;DHT22;33900;53.640;9.942;2022-12-24T11:36:42;9.20;95.00
15099;DHT22;33900;53.640;9.942;2022-12-24T11:39:10;9.20;95.00
15099;DHT22;33900;53.640;9.942;2022-12-24T11:41:42;9.30;95.00
15099;DHT22;33900;53.640;9.942;2022-12-24T11:44:07;9.30;95.00
15099;DHT22;33900;53.640;9.942;2022-12-24T11:46:40;9.30;95.00
15099;DHT22;33900;53.640;9.942;2022-12-24T11:51:37;9.30;94.90
15099;DHT22;33900;53.640;9.942;2022-12-24T11:54:15;9.30;94.90
15099;DHT22;33900;53.640;9.942;2022-12-24T11:56:47;9.30;95.00
15099;DHT22;33900;53.640;9.942;2022-12-24T11:59:18;9.30;95.00
15099;DHT22;33900;53.640;9.942;2022-12-24T12:01:49;9.30;95.00
15099;DHT22;33900;53.640;9.942;2022-12-24T12:04:23;9.30;95.00
15099;DHT22;33900;53.640;9.942;2022-12-24T12:09:21;9.40;95.00
15099;DHT22;33900;53.640;9.942;2022-12-24T12:11:57;9.40;95.00
15099;DHT22;33900;53.640;9.942;2022-12-24T12:14:29;9.40;95.00
15099;DHT22;33900;53.640;9.942;2022-12-24T12:17:13;9.40;95.00
15099;DHT22;33900;53.640;9.942;2022-12-24T12:19:47;9.40;95.00
15099;DHT22;33900;53.640;9.942;2022-12-24T12:22:25;9.40;95.00
15099;DHT22;33900;53.640;9.942;2022-12-24T12:24:54;9.40;95.00
15099;DHT22;33900;53.640;9.942;2022-12-24T12:27:26;9.50;95.00
15099;DHT22;33900;53.640;9.942;2022-12-24T12:30:08;9.50;95.10
15099;DHT22;33900;53.640;9.942;2022-12-24T12:35:12;9.60;95.10
15099;DHT22;33900;53.640;9.942;2022-12-24T12:37:40;9.60;95.10
15099;DHT22;33900;53.640;9.942;2022-12-24T12:40:17;9.60;95.40
15099;DHT22;33900;53.640;9.942;2022-12-24T12:42:52;9.60;95.00
15099;DHT22;33900;53.640;9.942;2022-12-24T12:46:07;9.70;95.10
15099;DHT22;33900;53.640;9.942;2022-12-24T12:51:03;9.70;95.10
15099;DHT22;33900;53.640;9.942;2022-12-24T12:56:08;9.80;95.10
15099;DHT22;33900;53.640;9.942;2022-12-24T13:01:19;9.80;95.10
15099;DHT22;33900;53.640;9.942;2022-12-24T13:11:26;9.90;95.10
15099;DHT22;33900;53.640;9.942;2022-12-24T13:21:22;10.00;95.10
15099;DHT22;33900;53.640;9.942;2022-12-24T13:23:49;10.00;95.10
15099;DHT22;33900;53.640;9.942;2022-12-24T13:26:15;10.00;95.10
15099;DHT22;33900;53.640;9.942;2022-12-24T13:28:42;10.00;95.10
15099;DHT22;33900;53.640;9.942;2022-12-24T13:41:35;10.20;95.00
15099;DHT22;33900;53.640;9.942;2022-12-24T13:49:11;10.20;95.00
15099;DHT22;33900;53.640;9.942;2022-12-24T13:51:41;10.20;95.00
15099;DHT22;33900;53.640;9.942;2022-12-24T13:54:08;10.20;95.00
15099;DHT22;33900;53.640;9.942;2022-12-24T13:56:35;10.20;95.00
15099;DHT22;33900;53.640;9.942;2022-12-24T14:01:46;10.30;95.10
15099;DHT22;33900;53.640;9.942;2022-12-24T14:04:19;10.20;95.00
15099;DHT22;33900;53.640;9.942;2022-12-24T14:06:48;10.20;95.00
15099;DHT22;33900;53.640;9.942;2022-12-24T14:09:15;10.30;95.10
15099;DHT22;33900;53.640;9.942;2022-12-24T14:14:34;10.30;95.10
15099;DHT22;33900;53.640;9.942;2022-12-24T14:17:01;10.30;95.10
15099;DHT22;33900;53.640;9.942;2022-12-24T14:19:43;10.30;95.10
15099;DHT22;33900;53.640;9.942;2022-12-24T14:22:33;10.40;95.10
15099;DHT22;33900;53.640;9.942;2022-12-24T14:25:08;10.40;95.10
15099;DHT22;33900;53.640;9.942;2022-12-24T14:27:38;10.40;95.10
15099;DHT22;33900;53.640;9.942;2022-12-24T14:30:12;10.40;95.10
15099;DHT22;33900;53.640;9.942;2022-12-24T14:32:40;10.40;95.10
15099;DHT22;33900;53.640;9.942;2022-12-24T14:37:44;10.40;95.40
15099;DHT22;33900;53.640;9.942;2022-12-24T14:40:15;10.50;95.10
15099;DHT22;33900;53.640;9.942;2022-12-24T14:45:14;10.50;95.10
15099;DHT22;33900;53.640;9.942;2022-12-24T14:52:44;10.50;95.00
15099;DHT22;33900;53.640;9.942;2022-12-24T14:55:26;10.50;95.00
15099;DHT22;33900;53.640;9.942;2022-12-24T14:58:12;10.50;95.00
15099;DHT22;33900;53.640;9.942;2022-12-24T15:00:38;10.50;95.00
15099;DHT22;33900;53.640;9.942;2022-12-24T15:03:11;10.50;95.00
15099;DHT22;33900;53.640;9.942;2022-12-24T15:05:37;10.50;95.00
15099;DHT22;33900;53.640;9.942;2022-12-24T15:08:07;10.50;95.00
15099;DHT22;33900;53.640;9.942;2022-12-24T15:10:35;10.60;95.10
15099;DHT22;33900;53.640;9.942;2022-12-24T15:13:02;10.50;95.00
15099;DHT22;33900;53.640;9.942;2022-12-24T15:15:28;10.50;95.00
15099;DHT22;33900;53.640;9.942;2022-12-24T15:17:54;10.50;95.00
15099;DHT22;33900;53.640;9.942;2022-12-24T15:20:22;10.40;95.00
15099;DHT22;33900;53.640;9.942;2022-12-24T15:22:50;10.40;95.00
15099;DHT22;33900;53.640;9.942;2022-12-24T15:25:21;10.40;95.10
15099;DHT22;33900;53.640;9.942;2022-12-24T15:27:49;10.40;95.10
15099;DHT22;33900;53.640;9.942;2022-12-24T15:30:19;10.40;95.10
15099;DHT22;33900;53.640;9.942;2022-12-24T15:32:45;10.40;95.10
15099;DHT22;33900;53.640;9.942;2022-12-24T15:37:56;10.40;95.10
15099;DHT22;33900;53.640;9.942;2022-12-24T15:40:22;10.40;95.10
15099;DHT22;33900;53.640;9.942;2022-12-24T15:42:48;10.40;95.10
15099;DHT22;33900;53.640;9.942;2022-12-24T15:45:18;10.40;95.30
15099;DHT22;33900;53.640;9.942;2022-12-24T15:47:47;10.40;95.10
15099;DHT22;33900;53.640;9.942;2022-12-24T15:52:52;10.40;95.10
15099;DHT22;33900;53.640;9.942;2022-12-24T15:57:50;10.40;95.10
15099;DHT22;33900;53.640;9.942;2022-12-24T16:00:23;10.40;95.10
15099;DHT22;33900;53.640;9.942;2022-12-24T16:02:52;10.40;95.40
15099;DHT22;33900;53.640;9.942;2022-12-24T16:10:51;10.50;95.20
15099;DHT22;33900;53.640;9.942;2022-12-24T16:13:19;10.50;95.20
15099;DHT22;33900;53.640;9.942;2022-12-24T16:15:50;10.50;95.20
15099;DHT22;33900;53.640;9.942;2022-12-24T16:18:17;10.50;95.20
15099;DHT22;33900;53.640;9.942;2022-12-24T16:20:48;10.50;95.20
15099;DHT22;33900;53.640;9.942;2022-12-24T16:23:17;10.50;95.20
15099;DHT22;33900;53.640;9.942;2022-12-24T16:25:43;10.60;95.20
15099;DHT22;33900;53.640;9.942;2022-12-24T16:28:10;10.60;95.30
15099;DHT22;33900;53.640;9.942;2022-12-24T16:30:36;10.60;95.30
15099;DHT22;33900;53.640;9.942;2022-12-24T16:33:02;10.60;95.30
15099;DHT22;33900;53.640;9.942;2022-12-24T16:35:29;10.60;95.30
15099;DHT22;33900;53.640;9.942;2022-12-24T16:38:01;10.60;95.30
15099;DHT22;33900;53.640;9.942;2022-12-24T16:40:27;10.60;95.30
15099;DHT22;33900;53.640;9.942;2022-12-24T16:42:52;10.70;95.30
15099;DHT22;33900;53.640;9.942;2022-12-24T16:45:37;10.70;95.30
15099;DHT22;33900;53.640;9.942;2022-12-24T16:48:24;10.70;95.40
15099;DHT22;33900;53.640;9.942;2022-12-24T16:50:50;10.70;95.40
15099;DHT22;33900;53.640;9.942;2022-12-24T16:53:19;10.70;95.50
15099;DHT22;33900;53.640;9.942;2022-12-24T16:55:45;10.70;95.60
15099;DHT22;33900;53.640;9.942;2022-12-24T16:58:12;10.70;95.60
15099;DHT22;33900;53.640;9.942;2022-12-24T17:00:38;10.80;95.60
15099;DHT22;33900;53.640;9.942;2022-12-24T17:03:04;10.70;95.50
15099;DHT22;33900;53.640;9.942;2022-12-24T17:05:30;10.80;95.60
15099;DHT22;33900;53.640;9.942;2022-12-24T17:07:59;10.80;95.60
15099;DHT22;33900;53.640;9.942;2022-12-24T17:10:26;10.80;95.60
15099;DHT22;33900;53.640;9.942;2022-12-24T17:12:51;10.80;95.60
15099;DHT22;33900;53.640;9.942;2022-12-24T17:15:17;10.80;95.70
15099;DHT22;33900;53.640;9.942;2022-12-24T17:17:46;10.80;95.70
15099;DHT22;33900;53.640;9.942;2022-12-24T17:20:12;10.80;95.80
15099;DHT22;33900;53.640;9.942;2022-12-24T17:22:38;10.80;95.80
15099;DHT22;33900;53.640;9.942;2022-12-24T17:25:04;10.80;95.70
15099;DHT22;33900;53.640;9.942;2022-12-24T17:27:30;10.80;95.80
15099;DHT22;33900;53.640;9.942;2022-12-24T17:29:57;10.80;95.80
15099;DHT22;33900;53.640;9.942;2022-12-24T19:07:57;9.00;97.20
15099;DHT22;33900;53.640;9.942;2022-12-24T19:10:22;9.10;98.10
15099;DHT22;33900;53.640;9.942;2022-12-24T19:12:48;9.20;98.50
15099;DHT22;33900;53.640;9.942;2022-12-24T19:15:14;9.40;98.50
15099;DHT22;33900;53.640;9.942;2022-12-24T19:17:39;9.50;98.60
15099;DHT22;33900;53.640;9.942;2022-12-24T19:20:05;9.70;98.60
15099;DHT22;33900;53.640;9.942;2022-12-24T19:22:31;9.80;98.50
15099;DHT22;33900;53.640;9.942;2022-12-24T19:24:57;10.00;98.60
15099;DHT22;33900;53.640;9.942;2022-12-24T19:27:22;10.10;98.50
15099;DHT22;33900;53.640;9.942;2022-12-24T19:29:48;10.20;98.40
15099;DHT22;33900;53.640;9.942;2022-12-24T19:32:13;10.30;98.40
15099;DHT22;33900;53.640;9.942;2022-12-24T19:34:39;10.40;98.30
15099;DHT22;33900;53.640;9.942;2022-12-24T19:37:04;10.50;98.30
15099;DHT22;33900;53.640;9.942;2022-12-24T19:39:30;10.60;98.20